createdAt,value
2023-02-18T00:00:07.834Z,96374.1
2023-02-18T00:01:10.407Z,96379.2
2023-02-18T00:02:13.052Z,96376.8
2023-02-18T00:03:15.283Z,96377.5
2023-02-18T00:04:17.547Z,96376.7
2023-02-18T00:05:20.077Z,96373.9
2023-02-18T00:06:22.635Z,96375.4
2023-02-18T00:07:25.120Z,96372.6
2023-02-18T00:08:27.644Z,96381.3
2023-02-18T00:09:30.137Z,96376.1
2023-02-18T00:10:32.655Z,96378.3
2023-02-18T00:11:35.161Z,96380.1
2023-02-18T00:12:37.683Z,96375.4
2023-02-18T00:13:40.276Z,96375.8
2023-02-18T00:14:42.816Z,96368.1
2023-02-18T00:15:45.481Z,96370.3
2023-02-18T00:16:48.049Z,96366
2023-02-18T00:17:50.565Z,96362.5
2023-02-18T00:18:52.793Z,96362
2023-02-18T00:19:55.295Z,96366.5
2023-02-18T00:20:57.797Z,96357.4
2023-02-18T00:22:00.294Z,96359.2
2023-02-18T00:23:02.828Z,96351.2
2023-02-18T00:24:05.044Z,96350.5
2023-02-18T00:25:07.275Z,96346
2023-02-18T00:26:11.568Z,96355.5
2023-02-18T00:27:14.246Z,96347.2
2023-02-18T00:28:16.738Z,96343.2
2023-02-18T00:29:19.316Z,96341.1
2023-02-18T00:30:22.230Z,96338.1
2023-02-18T00:31:25.460Z,96336.8
2023-02-18T00:32:28.140Z,96338.4
2023-02-18T00:33:30.640Z,96334.6
2023-02-18T00:34:33.148Z,96333.4
2023-02-18T00:35:35.404Z,96335.7
2023-02-18T00:36:37.925Z,96329.1
2023-02-18T00:37:40.444Z,96333.1
2023-02-18T00:38:42.683Z,96330.4
2023-02-18T00:39:44.605Z,96337.1
2023-02-18T00:40:47.083Z,96332.9
2023-02-18T00:41:49.291Z,96333.1
2023-02-18T00:42:51.813Z,96338.1
2023-02-18T00:43:54.352Z,96334.3
2023-02-18T00:44:56.931Z,96335.4
2023-02-18T00:45:59.639Z,96335
2023-02-18T00:47:02.055Z,96335
2023-02-18T00:48:04.286Z,96332.2
2023-02-18T00:49:06.276Z,96336.4
2023-02-18T00:50:08.778Z,96335.4
2023-02-18T00:51:11.322Z,96330.9
2023-02-18T00:52:13.885Z,96338
2023-02-18T00:53:16.402Z,96334
2023-02-18T00:54:18.337Z,96330.4
2023-02-18T00:55:20.848Z,96333.6
2023-02-18T00:56:23.355Z,96337.1
2023-02-18T00:57:25.864Z,96337.3
2023-02-18T00:58:28.391Z,96341.1
2023-02-18T00:59:30.881Z,96341.6
2023-02-18T01:00:33.163Z,96341.2
2023-02-18T01:01:36.045Z,96340.1
2023-02-18T01:02:38.356Z,96337.2
2023-02-18T01:03:40.880Z,96339.8
2023-02-18T01:04:43.675Z,96341.3
2023-02-18T01:05:45.979Z,96343.1
2023-02-18T01:06:48.199Z,96340.4
2023-02-18T01:07:50.718Z,96338.3
2023-02-18T01:08:52.971Z,96337.1
2023-02-18T01:09:55.466Z,96337.7
2023-02-18T01:10:57.972Z,96337.2
2023-02-18T01:12:00.464Z,96335.2
2023-02-18T01:13:02.965Z,96331.6
2023-02-18T01:14:05.533Z,96331
2023-02-18T01:15:07.775Z,96331.2
2023-02-18T01:16:12.321Z,96331.3
2023-02-18T01:17:15.027Z,96332.8
2023-02-18T01:18:17.532Z,96332.4
2023-02-18T01:19:19.777Z,96325.2
2023-02-18T01:20:22.312Z,96325.2
2023-02-18T01:21:24.807Z,96319.9
2023-02-18T01:22:27.032Z,96317.8
2023-02-18T01:23:29.541Z,96315
2023-02-18T01:24:32.085Z,96319.3
2023-02-18T01:25:34.588Z,96318.3
2023-02-18T01:26:37.094Z,96317.5
2023-02-18T01:27:39.299Z,96317.9
2023-02-18T01:28:41.952Z,96314.5
2023-02-18T01:29:44.539Z,96314
2023-02-18T01:30:47.056Z,96318.1
2023-02-18T01:31:50.332Z,96313.4
2023-02-18T01:32:53.076Z,96313
2023-02-18T01:33:55.316Z,96313.5
2023-02-18T01:34:57.832Z,96307.5
2023-02-18T01:36:00.321Z,96300.1
2023-02-18T01:37:02.871Z,96303.8
2023-02-18T01:38:05.369Z,96305.8
2023-02-18T01:39:07.855Z,96307.8
2023-02-18T01:40:10.354Z,96301.6
2023-02-18T01:41:12.850Z,96302.9
2023-02-18T01:42:15.124Z,96312.9
2023-02-18T01:43:17.650Z,96305.5
2023-02-18T01:44:20.152Z,96301.9
2023-02-18T01:45:22.381Z,96304.6
2023-02-18T01:46:25.074Z,96305.5
2023-02-18T01:47:27.690Z,96303.2
2023-02-18T01:48:30.349Z,96307.8
2023-02-18T01:49:32.274Z,96303.4
2023-02-18T01:50:34.468Z,96304.5
2023-02-18T01:51:36.526Z,96302.3
2023-02-18T01:52:39.033Z,96304.9
2023-02-18T01:53:41.258Z,96303.8
2023-02-18T01:54:43.768Z,96303.8
2023-02-18T01:55:45.717Z,96295.5
2023-02-18T01:56:47.988Z,96302.6
2023-02-18T01:57:50.655Z,96300.8
2023-02-18T01:58:53.139Z,96297.2
2023-02-18T01:59:55.623Z,96293.8
2023-02-18T02:00:58.406Z,96298
2023-02-18T02:02:01.356Z,96295.6
2023-02-18T02:03:04.037Z,96295
2023-02-18T02:04:06.561Z,96299.4
2023-02-18T02:05:09.067Z,96302.9
2023-02-18T02:06:11.267Z,96299
2023-02-18T02:07:13.769Z,96299
2023-02-18T02:08:15.992Z,96294.5
2023-02-18T02:09:18.640Z,96300.4
2023-02-18T02:10:21.215Z,96293
2023-02-18T02:11:23.762Z,96292.1
2023-02-18T02:12:26.255Z,96293.2
2023-02-18T02:13:28.488Z,96289.2
2023-02-18T02:14:30.673Z,96296.1
2023-02-18T02:15:32.611Z,96294.9
2023-02-18T02:16:35.274Z,96294.7
2023-02-18T02:17:37.554Z,96295.4
2023-02-18T02:18:40.058Z,96293.3
2023-02-18T02:19:42.601Z,96285.2
2023-02-18T02:20:45.079Z,96287.9
2023-02-18T02:21:47.016Z,96283.6
2023-02-18T02:22:49.224Z,96285.7
2023-02-18T02:23:51.741Z,96289.3
2023-02-18T02:24:54.270Z,96283.4
2023-02-18T02:25:56.793Z,96281.1
2023-02-18T02:26:59.288Z,96284.8
2023-02-18T02:28:01.810Z,96281.3
2023-02-18T02:29:04.058Z,96281.3
2023-02-18T02:30:06.733Z,96282.7
2023-02-18T02:31:09.973Z,96281.5
2023-02-18T02:32:12.404Z,96280.6
2023-02-18T02:33:14.902Z,96281.8
2023-02-18T02:34:17.180Z,96281.2
2023-02-18T02:35:19.785Z,96284.1
2023-02-18T02:36:21.743Z,96284.1
2023-02-18T02:37:24.242Z,96283.2
2023-02-18T02:38:26.733Z,96286.6
2023-02-18T02:39:29.246Z,96286.3
2023-02-18T02:40:31.777Z,96288.1
2023-02-18T02:41:34.325Z,96277.9
2023-02-18T02:42:36.823Z,96278.5
2023-02-18T02:43:39.324Z,96274.7
2023-02-18T02:44:41.822Z,96280
2023-02-18T02:45:44.480Z,96274.4
2023-02-18T02:46:47.021Z,96270.3
2023-02-18T02:47:49.557Z,96269.3
2023-02-18T02:48:52.065Z,96268.8
2023-02-18T02:49:54.618Z,96268.9
2023-02-18T02:50:56.874Z,96269.9
2023-02-18T02:51:59.390Z,96266.4
2023-02-18T02:53:01.894Z,96262.6
2023-02-18T02:54:04.142Z,96261.4
2023-02-18T02:55:06.622Z,96263.6
2023-02-18T02:56:10.559Z,96267.4
2023-02-18T02:57:13.139Z,96262.3
2023-02-18T02:58:15.654Z,96252.1
2023-02-18T02:59:18.144Z,96250.4
2023-02-18T03:00:20.439Z,96248.8
2023-02-18T03:01:23.073Z,96257.6
2023-02-18T03:02:25.666Z,96256
2023-02-18T03:03:28.185Z,96256.9
2023-02-18T03:04:30.154Z,96253.4
2023-02-18T03:05:32.459Z,96254
2023-02-18T03:06:34.984Z,96254.5
2023-02-18T03:07:37.506Z,96255.8
2023-02-18T03:08:40.040Z,96250.2
2023-02-18T03:09:42.516Z,96254.6
2023-02-18T03:10:45.017Z,96257.6
2023-02-18T03:11:46.962Z,96252.7
2023-02-18T03:12:49.282Z,96249.3
2023-02-18T03:13:51.790Z,96255.6
2023-02-18T03:14:53.721Z,96252.3
2023-02-18T03:15:56.236Z,96254.6
2023-02-18T03:16:58.733Z,96250.8
2023-02-18T03:18:01.222Z,96254.6
2023-02-18T03:19:03.466Z,96254.5
2023-02-18T03:20:05.696Z,96259
2023-02-18T03:21:08.297Z,96254.9
2023-02-18T03:22:10.831Z,96258.2
2023-02-18T03:23:13.327Z,96255.6
2023-02-18T03:24:15.833Z,96259.1
2023-02-18T03:25:18.052Z,96258.7
2023-02-18T03:26:20.547Z,96260.9
2023-02-18T03:27:23.056Z,96261.7
2023-02-18T03:28:25.281Z,96260.8
2023-02-18T03:29:27.515Z,96265.9
2023-02-18T03:30:29.902Z,96256.8
2023-02-18T03:31:32.822Z,96260.4
2023-02-18T03:32:35.467Z,96256.6
2023-02-18T03:33:37.975Z,96262.8
2023-02-18T03:34:40.492Z,96263.2
2023-02-18T03:35:42.840Z,96266.1
2023-02-18T03:36:45.396Z,96260.5
2023-02-18T03:37:47.913Z,96259.5
2023-02-18T03:38:50.143Z,96260.5
2023-02-18T03:39:52.352Z,96252.1
2023-02-18T03:40:54.599Z,96250.2
2023-02-18T03:41:57.146Z,96255.9
2023-02-18T03:42:59.650Z,96248.1
2023-02-18T03:44:01.899Z,96248.6
2023-02-18T03:45:04.148Z,96253.1
2023-02-18T03:46:08.180Z,96254.5
2023-02-18T03:47:11.547Z,96254.4
2023-02-18T03:48:14.059Z,96253.5
2023-02-18T03:49:16.597Z,96250.5
2023-02-18T03:50:19.161Z,96250.6
2023-02-18T03:51:21.661Z,96250.3
2023-02-18T03:52:24.262Z,96255.1
2023-02-18T03:53:26.502Z,96250.7
2023-02-18T03:54:29.004Z,96247.2
2023-02-18T03:55:30.940Z,96244.3
2023-02-18T03:56:33.465Z,96247.5
2023-02-18T03:57:36.025Z,96245.5
2023-02-18T03:58:38.496Z,96250.9
2023-02-18T03:59:41.007Z,96237.3
2023-02-18T04:00:43.257Z,96245.4
2023-02-18T04:01:45.766Z,96244.8
2023-02-18T04:02:48.270Z,96244.8
2023-02-18T04:03:50.481Z,96250.5
2023-02-18T04:04:52.967Z,96257.2
2023-02-18T04:05:55.475Z,96245.5
2023-02-18T04:06:57.698Z,96253.8
2023-02-18T04:08:00.274Z,96250.6
2023-02-18T04:09:02.783Z,96247.3
2023-02-18T04:10:04.716Z,96241.4
2023-02-18T04:11:07.213Z,96246
2023-02-18T04:12:09.448Z,96245.6
2023-02-18T04:13:11.732Z,96242.9
2023-02-18T04:14:13.941Z,96245.8
2023-02-18T04:15:16.446Z,96244.3
2023-02-18T04:16:19.086Z,96242.4
2023-02-18T04:17:21.369Z,96248.8
2023-02-18T04:18:23.885Z,96244.9
2023-02-18T04:19:25.850Z,96249.3
2023-02-18T04:20:28.335Z,96246.5
2023-02-18T04:21:30.860Z,96249.7
2023-02-18T04:22:33.398Z,96241.8
2023-02-18T04:23:35.976Z,96247.6
2023-02-18T04:24:38.488Z,96251
2023-02-18T04:25:40.738Z,96250.1
2023-02-18T04:26:43.219Z,96245.1
2023-02-18T04:27:46.159Z,96244.6
2023-02-18T04:28:49.089Z,96248.9
2023-02-18T04:29:51.604Z,96247.6
2023-02-18T04:30:54.332Z,96250
2023-02-18T04:31:56.817Z,96251.4
2023-02-18T04:32:58.790Z,96249.4
2023-02-18T04:34:01.013Z,96246.5
2023-02-18T04:35:03.231Z,96251.8
2023-02-18T04:36:06.009Z,96248
2023-02-18T04:37:08.062Z,96254.2
2023-02-18T04:38:10.465Z,96257.1
2023-02-18T04:39:12.771Z,96251.6
2023-02-18T04:40:15.304Z,96253
2023-02-18T04:41:17.790Z,96254.7
2023-02-18T04:42:20.286Z,96256.5
2023-02-18T04:43:22.489Z,96255.2
2023-02-18T04:44:24.729Z,96252.9
2023-02-18T04:45:27.240Z,96255.1
2023-02-18T04:46:29.888Z,96263
2023-02-18T04:47:32.695Z,96259.5
2023-02-18T04:48:34.986Z,96260.9
2023-02-18T04:49:37.218Z,96255
2023-02-18T04:50:39.795Z,96255.9
2023-02-18T04:51:42.314Z,96260.3
2023-02-18T04:52:44.897Z,96262.8
2023-02-18T04:53:47.471Z,96263.5
2023-02-18T04:54:50.067Z,96265
2023-02-18T04:55:52.640Z,96264
2023-02-18T04:56:55.160Z,96258.1
2023-02-18T04:57:57.709Z,96265.2
2023-02-18T04:59:00.091Z,96261.4
2023-02-18T05:00:02.617Z,96264.1
2023-02-18T05:01:05.386Z,96266.1
2023-02-18T05:02:07.641Z,96268.9
2023-02-18T05:03:09.591Z,96264.7
2023-02-18T05:04:12.553Z,96263.5
2023-02-18T05:05:15.169Z,96264.5
2023-02-18T05:06:17.732Z,96267.7
2023-02-18T05:07:19.968Z,96263.7
2023-02-18T05:08:22.523Z,96258.1
2023-02-18T05:09:24.770Z,96264.3
2023-02-18T05:10:27.348Z,96261.1
2023-02-18T05:11:29.910Z,96256.5
2023-02-18T05:12:32.171Z,96263.6
2023-02-18T05:13:34.662Z,96251.9
2023-02-18T05:14:36.896Z,96248.5
2023-02-18T05:15:39.005Z,96246.9
2023-02-18T05:16:41.280Z,96243.8
2023-02-18T05:17:43.826Z,96249.6
2023-02-18T05:18:45.756Z,96243.2
2023-02-18T05:19:48.249Z,96251.5
2023-02-18T05:20:50.744Z,96255.8
2023-02-18T05:21:52.994Z,96253.5
2023-02-18T05:22:55.542Z,96254.1
2023-02-18T05:23:58.065Z,96249.8
2023-02-18T05:25:00.356Z,96248.7
2023-02-18T05:26:02.927Z,96247.2
2023-02-18T05:27:05.489Z,96243.7
2023-02-18T05:28:07.977Z,96243.8
2023-02-18T05:29:10.182Z,96238.5
2023-02-18T05:30:12.846Z,96242.7
2023-02-18T05:31:15.843Z,96241.4
2023-02-18T05:32:18.491Z,96242.7
2023-02-18T05:33:21.022Z,96243.3
2023-02-18T05:34:23.231Z,96238.2
2023-02-18T05:35:25.726Z,96238.5
2023-02-18T05:36:27.951Z,96243.1
2023-02-18T05:37:30.153Z,96239.4
2023-02-18T05:38:32.634Z,96243.4
2023-02-18T05:39:34.872Z,96242.3
2023-02-18T05:40:36.819Z,96237.4
2023-02-18T05:41:39.407Z,96236.9
2023-02-18T05:42:41.660Z,96238.1
2023-02-18T05:43:44.176Z,96241
2023-02-18T05:44:46.681Z,96240.3
2023-02-18T05:45:48.896Z,96244
2023-02-18T05:46:51.373Z,96239.7
2023-02-18T05:47:53.585Z,96237.1
2023-02-18T05:48:56.110Z,96238.5
2023-02-18T05:49:58.331Z,96229.9
2023-02-18T05:51:00.824Z,96231.2
2023-02-18T05:52:03.048Z,96236.6
2023-02-18T05:53:05.568Z,96240.5
2023-02-18T05:54:08.119Z,96237.1
2023-02-18T05:55:10.632Z,96235.7
2023-02-18T05:56:12.852Z,96240.3
2023-02-18T05:57:15.419Z,96238.5
2023-02-18T05:58:18.003Z,96246.1
2023-02-18T05:59:20.213Z,96243.1
2023-02-18T06:00:22.439Z,96244.9
2023-02-18T06:01:24.950Z,96237.1
2023-02-18T06:02:27.590Z,96236.8
2023-02-18T06:03:29.822Z,96239.2
2023-02-18T06:04:32.038Z,96235.8
2023-02-18T06:05:34.413Z,96233.4
2023-02-18T06:06:36.708Z,96236.4
2023-02-18T06:07:39.217Z,96238.9
2023-02-18T06:08:41.711Z,96244.1
2023-02-18T06:09:44.209Z,96243.1
2023-02-18T06:10:46.768Z,96250.9
2023-02-18T06:11:49.371Z,96243.2
2023-02-18T06:12:51.939Z,96249.6
2023-02-18T06:13:54.446Z,96249.5
2023-02-18T06:14:56.983Z,96245.8
2023-02-18T06:15:59.641Z,96252.1
2023-02-18T06:17:02.210Z,96250.2
2023-02-18T06:18:04.405Z,96252.6
2023-02-18T06:19:06.905Z,96249
2023-02-18T06:20:09.409Z,96244.4
2023-02-18T06:21:11.464Z,96247.7
2023-02-18T06:22:13.978Z,96248.7
2023-02-18T06:23:16.460Z,96244.6
2023-02-18T06:24:18.665Z,96255.1
2023-02-18T06:25:20.862Z,96250.7
2023-02-18T06:26:23.130Z,96254.6
2023-02-18T06:27:25.371Z,96256.1
2023-02-18T06:28:27.926Z,96258
2023-02-18T06:29:30.439Z,96254.7
2023-02-18T06:30:32.911Z,96244.8
2023-02-18T06:31:35.590Z,96257.4
2023-02-18T06:32:38.074Z,96257
2023-02-18T06:33:40.586Z,96261.5
2023-02-18T06:34:43.102Z,96259.8
2023-02-18T06:35:45.580Z,96253
2023-02-18T06:36:48.074Z,96262.4
2023-02-18T06:37:50.577Z,96261.8
2023-02-18T06:38:53.074Z,96261.9
2023-02-18T06:39:55.565Z,96260.4
2023-02-18T06:40:58.062Z,96268
2023-02-18T06:42:00.542Z,96262.5
2023-02-18T06:43:03.056Z,96264.8
2023-02-18T06:44:05.703Z,96259.7
2023-02-18T06:45:08.264Z,96257.8
2023-02-18T06:46:12.317Z,96263.9
2023-02-18T06:47:14.844Z,96259.5
2023-02-18T06:48:17.455Z,96263.5
2023-02-18T06:49:19.682Z,96252.9
2023-02-18T06:50:22.189Z,96260.7
2023-02-18T06:51:24.691Z,96257.2
2023-02-18T06:52:27.288Z,96253
2023-02-18T06:53:29.199Z,96260.5
2023-02-18T06:54:31.687Z,96259.4
2023-02-18T06:55:33.913Z,96258.7
2023-02-18T06:56:35.860Z,96251.6
2023-02-18T06:57:38.095Z,96259.4
2023-02-18T06:58:40.627Z,96259.1
2023-02-18T06:59:42.920Z,96259
2023-02-18T07:00:45.711Z,96250
2023-02-18T07:01:48.049Z,96251.7
2023-02-18T07:02:50.846Z,96254.6
2023-02-18T07:03:53.292Z,96256.9
2023-02-18T07:04:55.866Z,96263
2023-02-18T07:05:58.378Z,96258.7
2023-02-18T07:07:00.877Z,96254.1
2023-02-18T07:08:03.118Z,96256.5
2023-02-18T07:09:05.635Z,96247.8
2023-02-18T07:10:07.876Z,96256.1
2023-02-18T07:11:10.617Z,96256.4
2023-02-18T07:12:13.138Z,96257.6
2023-02-18T07:13:15.708Z,96256.8
2023-02-18T07:14:18.214Z,96260.5
2023-02-18T07:15:20.782Z,96247.9
2023-02-18T07:16:23.274Z,96266
2023-02-18T07:17:25.877Z,96248.4
2023-02-18T07:18:28.368Z,96260.6
2023-02-18T07:19:30.899Z,96251.4
2023-02-18T07:20:33.441Z,96262.4
2023-02-18T07:21:35.992Z,96261.9
2023-02-18T07:22:38.512Z,96258
2023-02-18T07:23:41.046Z,96252.5
2023-02-18T07:24:43.269Z,96250.8
2023-02-18T07:25:45.495Z,96253.1
2023-02-18T07:26:47.981Z,96260.6
2023-02-18T07:27:50.481Z,96266.2
2023-02-18T07:28:53.039Z,96274.3
2023-02-18T07:29:55.596Z,96279.3
2023-02-18T07:30:58.093Z,96271.6
2023-02-18T07:32:00.929Z,96272.3
2023-02-18T07:33:05.226Z,96267
2023-02-18T07:34:07.497Z,96265.4
2023-02-18T07:35:10.007Z,96272.9
2023-02-18T07:36:12.742Z,96273.6
2023-02-18T07:37:14.956Z,96276.6
2023-02-18T07:38:17.442Z,96275.5
2023-02-18T07:39:19.950Z,96274.7
2023-02-18T07:40:22.171Z,96274.2
2023-02-18T07:41:24.427Z,96276.4
2023-02-18T07:42:26.682Z,96264.8
2023-02-18T07:43:29.136Z,96264.3
2023-02-18T07:44:31.696Z,96270.7
2023-02-18T07:45:34.110Z,96272
2023-02-18T07:46:36.556Z,96261.1
2023-02-18T07:47:38.801Z,96266.7
2023-02-18T07:48:41.319Z,96263.6
2023-02-18T07:49:43.847Z,96271
2023-02-18T07:50:46.355Z,96263.8
2023-02-18T07:51:48.873Z,96261.2
2023-02-18T07:52:51.355Z,96261
2023-02-18T07:53:53.604Z,96259.8
2023-02-18T07:54:56.115Z,96269.9
2023-02-18T07:55:58.093Z,96269.3
2023-02-18T07:57:00.641Z,96251.7
2023-02-18T07:58:03.138Z,96270.9
2023-02-18T07:59:05.651Z,96268.9
2023-02-18T08:00:08.195Z,96265.7
2023-02-18T08:01:10.681Z,96262
2023-02-18T08:02:12.849Z,96253.4
2023-02-18T08:03:15.460Z,96259.6
2023-02-18T08:04:18.032Z,96254.2
2023-02-18T08:05:20.633Z,96252.6
2023-02-18T08:06:23.167Z,96248.5
2023-02-18T08:07:25.678Z,96249.3
2023-02-18T08:08:28.186Z,96250.8
2023-02-18T08:09:30.142Z,96238.8
2023-02-18T08:10:32.405Z,96244.7
2023-02-18T08:11:34.972Z,96247.6
2023-02-18T08:12:37.216Z,96239.2
2023-02-18T08:13:39.763Z,96244.7
2023-02-18T08:14:41.996Z,96239.5
2023-02-18T08:15:44.564Z,96241.5
2023-02-18T08:16:47.341Z,96235.7
2023-02-18T08:17:49.683Z,96235.6
2023-02-18T08:18:52.194Z,96226.9
2023-02-18T08:19:54.407Z,96227.1
2023-02-18T08:20:56.914Z,96222.9
2023-02-18T08:21:59.152Z,96231.9
2023-02-18T08:23:01.669Z,96238.9
2023-02-18T08:24:03.656Z,96226
2023-02-18T08:25:06.173Z,96225.5
2023-02-18T08:26:09.817Z,96227.1
2023-02-18T08:27:12.535Z,96222
2023-02-18T08:28:15.048Z,96227.6
2023-02-18T08:29:17.543Z,96220.5
2023-02-18T08:30:19.803Z,96217.9
2023-02-18T08:31:23.237Z,96215.1
2023-02-18T08:32:25.946Z,96214.4
2023-02-18T08:33:28.277Z,96214.8
2023-02-18T08:34:30.795Z,96215.2
2023-02-18T08:35:33.042Z,96206.5
2023-02-18T08:36:35.264Z,96206.9
2023-02-18T08:38:42.721Z,96209.4
2023-02-18T08:39:45.216Z,96205.6
2023-02-18T08:40:47.475Z,96201.9
2023-02-18T08:41:49.724Z,96204.7
2023-02-18T08:42:51.966Z,96200.6
2023-02-18T08:43:54.206Z,96202.4
2023-02-18T08:45:11.401Z,96199
2023-02-18T08:48:42.907Z,96201.3
2023-02-18T08:49:44.913Z,96203.1
2023-02-18T08:50:47.463Z,96189.6
2023-02-18T08:51:50.038Z,96187.7
2023-02-18T08:52:52.576Z,96195.5
2023-02-18T08:53:55.089Z,96194
2023-02-18T08:54:57.323Z,96195.9
2023-02-18T08:55:59.283Z,96192.1
2023-02-18T08:57:01.811Z,96190.4
2023-02-18T08:58:04.303Z,96195.7
2023-02-18T08:59:06.823Z,96196.3
2023-02-18T09:00:09.050Z,96190.7
2023-02-18T09:01:12.643Z,96187.8
2023-02-18T09:02:14.948Z,96184.2
2023-02-18T09:03:17.223Z,96180.4
2023-02-18T09:04:19.956Z,96184.1
2023-02-18T09:05:22.581Z,96186.6
2023-02-18T09:06:25.085Z,96188.6
2023-02-18T09:07:27.302Z,96194.7
2023-02-18T09:08:29.800Z,96196.8
2023-02-18T09:09:32.059Z,96192
2023-02-18T09:10:34.289Z,96184
2023-02-18T09:11:36.810Z,96189.6
2023-02-18T09:12:39.329Z,96181.8
2023-02-18T09:13:41.978Z,96192.4
2023-02-18T09:14:44.175Z,96184
2023-02-18T09:15:46.860Z,96187.5
2023-02-18T09:16:49.106Z,96193.6
2023-02-18T09:17:51.783Z,96190.3
2023-02-18T09:18:54.315Z,96179.5
2023-02-18T09:19:56.635Z,96185.7
2023-02-18T09:20:58.867Z,96180.6
2023-02-18T09:22:02.600Z,96178
2023-02-18T09:23:05.012Z,96185.2
2023-02-18T09:24:06.692Z,96180.8
2023-02-18T09:25:08.960Z,96172.4
2023-02-18T09:26:10.918Z,96190
2023-02-18T09:27:13.133Z,96183.1
2023-02-18T09:28:15.654Z,96182.9
2023-02-18T09:29:18.173Z,96173.9
2023-02-18T09:30:20.685Z,96182.5
2023-02-18T09:31:23.958Z,96180.7
2023-02-18T09:33:31.329Z,96186.4
2023-02-18T09:34:33.593Z,96190.6
2023-02-18T09:35:36.358Z,96185.7
2023-02-18T09:36:38.892Z,96186.5
2023-02-18T09:37:41.438Z,96187.8
2023-02-18T09:38:43.938Z,96205
2023-02-18T09:39:46.134Z,96183.9
2023-02-18T09:40:48.690Z,96187.5
2023-02-18T09:41:51.216Z,96174.7
2023-02-18T09:42:53.725Z,96175.7
2023-02-18T09:43:56.242Z,96179
2023-02-18T09:44:58.184Z,96167
2023-02-18T09:46:00.961Z,96167
2023-02-18T09:47:03.618Z,96156.7
2023-02-18T09:48:05.855Z,96172.5
2023-02-18T09:49:08.367Z,96153.2
2023-02-18T09:50:10.883Z,96155.5
2023-02-18T09:51:13.444Z,96157.1
2023-02-18T09:52:16.012Z,96139.9
2023-02-18T09:53:18.515Z,96145.8
2023-02-18T09:54:20.742Z,96140.7
2023-02-18T09:55:23.280Z,96149.7
2023-02-18T09:56:25.490Z,96146.1
2023-02-18T09:57:28.041Z,96139.5
2023-02-18T09:58:30.537Z,96139.1
2023-02-18T09:59:32.753Z,96136.2
2023-02-18T10:00:35.297Z,96133.9
2023-02-18T10:01:38.244Z,96136.6
2023-02-18T10:02:40.662Z,96135.9
2023-02-18T10:03:42.881Z,96144.7
2023-02-18T10:04:45.107Z,96135.2
2023-02-18T10:05:47.408Z,96135.5
2023-02-18T10:06:50.016Z,96137.4
2023-02-18T10:07:52.574Z,96121.7
2023-02-18T10:08:54.849Z,96139.5
2023-02-18T10:09:57.425Z,96124.9
2023-02-18T10:10:59.721Z,96145
2023-02-18T10:12:01.954Z,96119.5
2023-02-18T10:13:04.214Z,96109.7
2023-02-18T10:14:06.464Z,96125.3
2023-02-18T10:15:08.725Z,96123.4
2023-02-18T10:16:13.297Z,96113.3
2023-02-18T10:17:15.771Z,96120
2023-02-18T10:18:18.018Z,96115.8
2023-02-18T10:19:20.543Z,96108.4
2023-02-18T10:20:23.057Z,96108.5
2023-02-18T10:21:25.328Z,96124.3
2023-02-18T10:22:27.959Z,96113.7
2023-02-18T10:23:30.498Z,96117
2023-02-18T10:24:32.697Z,96099.3
2023-02-18T10:25:35.210Z,96114.5
2023-02-18T10:26:37.717Z,96118
2023-02-18T10:27:40.245Z,96105.3
2023-02-18T10:28:42.745Z,96100
2023-02-18T10:29:45.243Z,96094
2023-02-18T10:30:47.655Z,96111.4
2023-02-18T10:31:50.788Z,96097.2
2023-02-18T10:32:52.930Z,96102.5
2023-02-18T10:33:55.460Z,96106
2023-02-18T10:36:02.968Z,96110.2
2023-02-18T10:37:05.216Z,96106.9
2023-02-18T10:38:07.887Z,96109.3
2023-02-18T10:39:10.146Z,96105.2
2023-02-18T10:40:12.424Z,96105
2023-02-18T10:41:14.961Z,96104.2
2023-02-18T10:42:16.648Z,96113.1
2023-02-18T10:43:19.195Z,96100.5
2023-02-18T10:44:21.691Z,96095.5
2023-02-18T10:45:23.938Z,96087.1
2023-02-18T10:46:26.031Z,96091.5
2023-02-18T10:47:28.321Z,96087.9
2023-02-18T10:48:30.830Z,96090
2023-02-18T10:49:33.351Z,96087.4
2023-02-18T10:50:35.881Z,96081.7
2023-02-18T10:51:38.089Z,96084.5
2023-02-18T10:52:40.723Z,96078.1
2023-02-18T10:53:43.312Z,96075.5
2023-02-18T10:54:45.833Z,96078.8
2023-02-18T10:55:48.058Z,96066
2023-02-18T10:56:50.614Z,96067.9
2023-02-18T10:57:52.850Z,96071.6
2023-02-18T10:58:55.081Z,96063.7
2023-02-18T10:59:57.577Z,96078.9
2023-02-18T11:00:59.807Z,96058
2023-02-18T11:02:02.410Z,96065.1
2023-02-18T11:03:04.936Z,96059.3
2023-02-18T11:04:11.868Z,96047
2023-02-18T11:05:13.820Z,96050.9
2023-02-18T11:06:16.322Z,96048
2023-02-18T11:07:18.541Z,96048.1
2023-02-18T11:08:20.830Z,96032.9
2023-02-18T11:09:23.393Z,96044.8
2023-02-18T11:10:26.134Z,96036.9
2023-02-18T11:11:28.676Z,96028.8
2023-02-18T11:12:31.198Z,96022.2
2023-02-18T11:13:33.422Z,96025.3
2023-02-18T11:14:35.928Z,96016.3
2023-02-18T11:15:38.165Z,96033
2023-02-18T11:16:40.391Z,96012.5
2023-02-18T11:17:42.903Z,96012.7
2023-02-18T11:18:45.136Z,96004.8
2023-02-18T11:19:47.353Z,96009.9
2023-02-18T11:20:49.864Z,96006.9
2023-02-18T11:21:52.092Z,96015.7
2023-02-18T11:22:54.320Z,96014
2023-02-18T11:23:56.551Z,96012
2023-02-18T11:24:58.900Z,96015.9
2023-02-18T11:26:01.558Z,96011.5
2023-02-18T11:27:04.121Z,96016.5
2023-02-18T11:28:06.364Z,96015.2
2023-02-18T11:29:08.598Z,96015.5
2023-02-18T11:30:11.028Z,96012.3
2023-02-18T11:31:14.556Z,96018.5
2023-02-18T11:32:17.121Z,96012.8
2023-02-18T11:33:19.172Z,96004.7
2023-02-18T11:34:21.706Z,96000.9
2023-02-18T11:35:24.231Z,95997.8
2023-02-18T11:36:26.497Z,95997.7
2023-02-18T11:37:29.035Z,95997.6
2023-02-18T11:38:31.616Z,95995.2
2023-02-18T11:39:33.886Z,96004.7
2023-02-18T11:40:36.200Z,96000.6
2023-02-18T11:41:38.740Z,95994.2
2023-02-18T11:42:41.256Z,95992.4
2023-02-18T11:43:43.777Z,95990.3
2023-02-18T11:44:45.997Z,95988.1
2023-02-18T11:45:48.505Z,95995
2023-02-18T11:46:51.206Z,95997.7
2023-02-18T11:47:53.798Z,96006
2023-02-18T11:48:55.175Z,95995.4
2023-02-18T11:49:57.400Z,95994
2023-02-18T11:50:59.616Z,96004.2
2023-02-18T11:52:02.107Z,95993.2
2023-02-18T11:53:03.778Z,95991.1
2023-02-18T11:54:06.323Z,95987.4
2023-02-18T11:55:08.862Z,95988.1
2023-02-18T11:56:11.441Z,95980.1
2023-02-18T11:57:13.684Z,95982.1
2023-02-18T11:58:16.196Z,95980.9
2023-02-18T11:59:18.162Z,95985.1
2023-02-18T12:00:20.379Z,95985.3
2023-02-18T12:01:22.894Z,95980.5
2023-02-18T12:02:25.405Z,95981.9
2023-02-18T12:03:27.935Z,95975.8
2023-02-18T12:04:30.476Z,95972.5
2023-02-18T12:05:32.976Z,95979
2023-02-18T12:06:35.189Z,95969.9
2023-02-18T12:07:37.703Z,95978.1
2023-02-18T12:08:40.602Z,95979.5
2023-02-18T12:09:43.097Z,95972.4
2023-02-18T12:10:45.629Z,95975.7
2023-02-18T12:11:48.197Z,95968.6
2023-02-18T12:12:50.728Z,95967.9
2023-02-18T12:13:53.264Z,95961.3
2023-02-18T12:14:55.582Z,95951.9
2023-02-18T12:15:58.905Z,95954.3
2023-02-18T12:17:01.908Z,95960.9
2023-02-18T12:18:04.675Z,95950.8
2023-02-18T12:19:07.206Z,95959.2
2023-02-18T12:20:09.445Z,95942.8
2023-02-18T12:21:12.021Z,95952.9
2023-02-18T12:22:14.512Z,95943.2
2023-02-18T12:23:17.023Z,95951.3
2023-02-18T12:24:19.529Z,95942.9
2023-02-18T12:25:21.793Z,95945.4
2023-02-18T12:26:24.108Z,95942
2023-02-18T12:27:26.413Z,95938.9
2023-02-18T12:28:28.701Z,95940.1
2023-02-18T12:29:31.249Z,95942
2023-02-18T12:30:34.007Z,95936.8
2023-02-18T12:31:36.816Z,95929.7
2023-02-18T12:32:39.474Z,95931.4
2023-02-18T12:33:42.007Z,95939.6
2023-02-18T12:34:44.532Z,95930
2023-02-18T12:35:47.154Z,95942.8
2023-02-18T12:36:49.384Z,95932.3
2023-02-18T12:37:51.909Z,95936
2023-02-18T12:38:54.157Z,95927.3
2023-02-18T12:39:56.664Z,95924.5
2023-02-18T12:40:59.164Z,95922.7
2023-02-18T12:42:01.724Z,95925.5
2023-02-18T12:43:04.427Z,95928.6
2023-02-18T12:44:06.711Z,95927.3
2023-02-18T12:45:09.217Z,95928.2
2023-02-18T12:46:11.925Z,95927.1